sensor_id;sensor_type;location;lat;lon;timestamp;temperature;humidity
66610;DHT22;53468;48.276;14.416;2024-02-15T00:01:11;6.00;90.00
66610;DHT22;53468;48.276;14.416;2024-02-15T00:06:15;5.90;90.50
66610;DHT22;53468;48.276;14.416;2024-02-15T00:11:17;5.90;90.50
66610;DHT22;53468;48.276;14.416;2024-02-15T00:16:19;5.80;90.60
66610;DHT22;53468;48.276;14.416;2024-02-15T00:21:24;5.80;90.70
66610;DHT22;53468;48.276;14.416;2024-02-15T00:26:26;5.70;90.70
66610;DHT22;53468;48.276;14.416;2024-02-15T00:31:28;5.70;90.80
66610;DHT22;53468;48.276;14.416;2024-02-15T00:36:32;5.70;91.00
66610;DHT22;53468;48.276;14.416;2024-02-15T00:41:34;5.90;91.20
66610;DHT22;53468;48.276;14.416;2024-02-15T00:46:36;5.80;91.30
66610;DHT22;53468;48.276;14.416;2024-02-15T00:51:42;5.90;91.30
66610;DHT22;53468;48.276;14.416;2024-02-15T00:56:46;6.00;91.30
66610;DHT22;53468;48.276;14.416;2024-02-15T01:01:48;6.00;91.50
66610;DHT22;53468;48.276;14.416;2024-02-15T01:06:52;6.20;91.30
66610;DHT22;53468;48.276;14.416;2024-02-15T01:11:54;6.10;91.50
66610;DHT22;53468;48.276;14.416;2024-02-15T01:16:57;6.20;91.40
66610;DHT22;53468;48.276;14.416;2024-02-15T01:22:00;6.20;91.50
66610;DHT22;53468;48.276;14.416;2024-02-15T01:27:03;6.30;91.50
66610;DHT22;53468;48.276;14.416;2024-02-15T01:32:06;6.30;91.30
66610;DHT22;53468;48.276;14.416;2024-02-15T01:37:10;6.20;91.00
66610;DHT22;53468;48.276;14.416;2024-02-15T01:42:12;6.30;91.20
66610;DHT22;53468;48.276;14.416;2024-02-15T01:47:16;6.40;91.10
66610;DHT22;53468;48.276;14.416;2024-02-15T01:52:21;6.50;90.50
66610;DHT22;53468;48.276;14.416;2024-02-15T01:57:23;6.40;90.70
66610;DHT22;53468;48.276;14.416;2024-02-15T02:02:26;6.40;91.10
66610;DHT22;53468;48.276;14.416;2024-02-15T02:07:33;6.40;91.10
66610;DHT22;53468;48.276;14.416;2024-02-15T02:12:36;6.40;91.00
66610;DHT22;53468;48.276;14.416;2024-02-15T02:17:40;6.60;90.60
66610;DHT22;53468;48.276;14.416;2024-02-15T02:22:46;6.40;90.50
66610;DHT22;53468;48.276;14.416;2024-02-15T02:27:51;6.50;90.60
66610;DHT22;53468;48.276;14.416;2024-02-15T02:32:54;6.50;90.70
66610;DHT22;53468;48.276;14.416;2024-02-15T02:37:56;6.40;91.00
66610;DHT22;53468;48.276;14.416;2024-02-15T02:43:00;6.40;91.40
66610;DHT22;53468;48.276;14.416;2024-02-15T02:48:03;6.30;91.40
66610;DHT22;53468;48.276;14.416;2024-02-15T02:53:05;6.30;91.40
66610;DHT22;53468;48.276;14.416;2024-02-15T02:58:11;6.30;91.20
66610;DHT22;53468;48.276;14.416;2024-02-15T03:03:14;6.40;91.10
66610;DHT22;53468;48.276;14.416;2024-02-15T03:08:16;6.40;91.20
66610;DHT22;53468;48.276;14.416;2024-02-15T03:13:20;6.40;91.20
66610;DHT22;53468;48.276;14.416;2024-02-15T03:18:22;6.40;91.30
66610;DHT22;53468;48.276;14.416;2024-02-15T03:23:25;6.40;91.20
66610;DHT22;53468;48.276;14.416;2024-02-15T03:28:28;6.40;91.20
66610;DHT22;53468;48.276;14.416;2024-02-15T03:33:31;6.40;91.10
66610;DHT22;53468;48.276;14.416;2024-02-15T03:38:35;6.30;91.10
66610;DHT22;53468;48.276;14.416;2024-02-15T03:43:39;6.30;91.20
66610;DHT22;53468;48.276;14.416;2024-02-15T03:48:43;6.30;91.30
66610;DHT22;53468;48.276;14.416;2024-02-15T03:53:46;6.30;91.30
66610;DHT22;53468;48.276;14.416;2024-02-15T03:58:50;6.30;91.20
66610;DHT22;53468;48.276;14.416;2024-02-15T04:03:53;6.40;91.20
66610;DHT22;53468;48.276;14.416;2024-02-15T04:08:56;6.30;91.20
66610;DHT22;53468;48.276;14.416;2024-02-15T04:14:00;6.30;91.30
66610;DHT22;53468;48.276;14.416;2024-02-15T04:24:13;6.30;91.40
66610;DHT22;53468;48.276;14.416;2024-02-15T04:29:16;6.40;91.70
66610;DHT22;53468;48.276;14.416;2024-02-15T04:34:20;6.30;91.70
66610;DHT22;53468;48.276;14.416;2024-02-15T04:39:23;6.40;91.80
66610;DHT22;53468;48.276;14.416;2024-02-15T04:44:29;6.30;91.80
66610;DHT22;53468;48.276;14.416;2024-02-15T04:49:31;6.20;91.80
66610;DHT22;53468;48.276;14.416;2024-02-15T04:54:34;6.30;91.70
66610;DHT22;53468;48.276;14.416;2024-02-15T04:59:38;6.30;91.40
66610;DHT22;53468;48.276;14.416;2024-02-15T05:04:40;6.40;91.30
66610;DHT22;53468;48.276;14.416;2024-02-15T05:09:43;6.40;91.30
66610;DHT22;53468;48.276;14.416;2024-02-15T05:14:47;6.40;91.10
66610;DHT22;53468;48.276;14.416;2024-02-15T05:19:49;6.50;91.20
66610;DHT22;53468;48.276;14.416;2024-02-15T05:24:52;6.50;91.40
66610;DHT22;53468;48.276;14.416;2024-02-15T05:29:56;6.50;91.30
66610;DHT22;53468;48.276;14.416;2024-02-15T05:34:59;6.50;91.60
66610;DHT22;53468;48.276;14.416;2024-02-15T05:40:03;6.50;91.60
66610;DHT22;53468;48.276;14.416;2024-02-15T05:45:29;6.50;91.70
66610;DHT22;53468;48.276;14.416;2024-02-15T05:50:33;6.40;91.50
66610;DHT22;53468;48.276;14.416;2024-02-15T05:55:35;6.40;91.70
66610;DHT22;53468;48.276;14.416;2024-02-15T06:00:43;6.40;91.70
66610;DHT22;53468;48.276;14.416;2024-02-15T06:05:50;6.40;91.70
66610;DHT22;53468;48.276;14.416;2024-02-15T06:10:53;6.40;91.50
66610;DHT22;53468;48.276;14.416;2024-02-15T08:04:20;7.10;91.80
66610;DHT22;53468;48.276;14.416;2024-02-15T08:09:23;7.50;91.20
66610;DHT22;53468;48.276;14.416;2024-02-15T08:14:26;7.70;90.60
66610;DHT22;53468;48.276;14.416;2024-02-15T08:19:30;7.90;90.50
66610;DHT22;53468;48.276;14.416;2024-02-15T08:24:33;8.10;88.50
66610;DHT22;53468;48.276;14.416;2024-02-15T08:29:35;8.30;88.40
66610;DHT22;53468;48.276;14.416;2024-02-15T08:34:38;8.50;88.20
66610;DHT22;53468;48.276;14.416;2024-02-15T08:39:41;8.70;86.90
66610;DHT22;53468;48.276;14.416;2024-02-15T08:44:45;8.90;87.30
66610;DHT22;53468;48.276;14.416;2024-02-15T08:49:49;9.10;86.20
66610;DHT22;53468;48.276;14.416;2024-02-15T08:54:52;9.30;85.80
66610;DHT22;53468;48.276;14.416;2024-02-15T08:59:55;9.40;83.60
66610;DHT22;53468;48.276;14.416;2024-02-15T09:04:59;9.60;84.00
66610;DHT22;53468;48.276;14.416;2024-02-15T09:10:01;9.70;83.60
66610;DHT22;53468;48.276;14.416;2024-02-15T09:15:04;9.80;83.30
66610;DHT22;53468;48.276;14.416;2024-02-15T09:20:09;9.90;83.10
66610;DHT22;53468;48.276;14.416;2024-02-15T09:25:15;10.00;82.00
66610;DHT22;53468;48.276;14.416;2024-02-15T09:30:17;10.10;81.20
66610;DHT22;53468;48.276;14.416;2024-02-15T09:35:22;10.30;81.50
66610;DHT22;53468;48.276;14.416;2024-02-15T09:40:25;10.70;79.30
66610;DHT22;53468;48.276;14.416;2024-02-15T09:45:29;10.90;77.80
66610;DHT22;53468;48.276;14.416;2024-02-15T09:50:35;11.00;77.70
66610;DHT22;53468;48.276;14.416;2024-02-15T09:55:39;11.10;77.60
66610;DHT22;53468;48.276;14.416;2024-02-15T10:00:43;11.10;77.30
66610;DHT22;53468;48.276;14.416;2024-02-15T10:05:49;11.10;76.40
66610;DHT22;53468;48.276;14.416;2024-02-15T10:11:05;11.40;75.70
66610;DHT22;53468;48.276;14.416;2024-02-15T10:16:15;11.50;73.00
66610;DHT22;53468;48.276;14.416;2024-02-15T10:21:27;11.60;73.60
66610;DHT22;53468;48.276;14.416;2024-02-15T10:26:31;11.60;73.20
66610;DHT22;53468;48.276;14.416;2024-02-15T10:31:33;11.60;73.20
66610;DHT22;53468;48.276;14.416;2024-02-15T10:36:37;11.70;74.00
66610;DHT22;53468;48.276;14.416;2024-02-15T10:41:40;11.80;74.70
66610;DHT22;53468;48.276;14.416;2024-02-15T10:46:44;12.00;73.20
66610;DHT22;53468;48.276;14.416;2024-02-15T10:51:51;12.00;73.50
66610;DHT22;53468;48.276;14.416;2024-02-15T10:57:03;12.10;73.80
66610;DHT22;53468;48.276;14.416;2024-02-15T11:02:20;12.10;73.60
66610;DHT22;53468;48.276;14.416;2024-02-15T11:07:27;12.20;74.30
66610;DHT22;53468;48.276;14.416;2024-02-15T11:12:30;12.30;74.00
66610;DHT22;53468;48.276;14.416;2024-02-15T11:17:48;12.40;73.70
66610;DHT22;53468;48.276;14.416;2024-02-15T11:22:57;12.30;72.90
66610;DHT22;53468;48.276;14.416;2024-02-15T11:28:37;12.20;71.90
66610;DHT22;53468;48.276;14.416;2024-02-15T11:33:43;12.10;72.10
66610;DHT22;53468;48.276;14.416;2024-02-15T11:38:46;12.10;73.60
66610;DHT22;53468;48.276;14.416;2024-02-15T11:43:52;12.10;73.10
66610;DHT22;53468;48.276;14.416;2024-02-15T11:48:58;12.10;72.20
66610;DHT22;53468;48.276;14.416;2024-02-15T11:54:06;12.20;72.40
66610;DHT22;53468;48.276;14.416;2024-02-15T11:59:08;12.30;72.00
66610;DHT22;53468;48.276;14.416;2024-02-15T12:04:19;12.30;71.30
66610;DHT22;53468;48.276;14.416;2024-02-15T12:09:40;12.30;71.30
66610;DHT22;53468;48.276;14.416;2024-02-15T12:14:59;12.30;71.80
66610;DHT22;53468;48.276;14.416;2024-02-15T12:20:19;12.30;72.30
66610;DHT22;53468;48.276;14.416;2024-02-15T12:25:27;12.30;72.60
66610;DHT22;53468;48.276;14.416;2024-02-15T12:30:34;12.40;71.20
66610;DHT22;53468;48.276;14.416;2024-02-15T12:35:37;12.50;72.00
66610;DHT22;53468;48.276;14.416;2024-02-15T12:40:41;12.60;70.70
66610;DHT22;53468;48.276;14.416;2024-02-15T12:45:44;12.70;70.40
66610;DHT22;53468;48.276;14.416;2024-02-15T12:50:46;12.70;71.30
66610;DHT22;53468;48.276;14.416;2024-02-15T12:55:54;12.80;72.00
66610;DHT22;53468;48.276;14.416;2024-02-15T13:00:56;12.90;72.10
66610;DHT22;53468;48.276;14.416;2024-02-15T13:05:59;13.00;72.40
66610;DHT22;53468;48.276;14.416;2024-02-15T13:11:02;13.10;70.50
66610;DHT22;53468;48.276;14.416;2024-02-15T13:16:05;13.20;71.70
66610;DHT22;53468;48.276;14.416;2024-02-15T13:21:08;13.20;71.40
66610;DHT22;53468;48.276;14.416;2024-02-15T13:26:12;13.20;70.70
66610;DHT22;53468;48.276;14.416;2024-02-15T13:31:15;13.20;71.70
66610;DHT22;53468;48.276;14.416;2024-02-15T13:36:17;13.30;71.30
66610;DHT22;53468;48.276;14.416;2024-02-15T13:41:22;13.30;71.30
66610;DHT22;53468;48.276;14.416;2024-02-15T13:46:24;13.20;72.30
66610;DHT22;53468;48.276;14.416;2024-02-15T13:51:26;13.20;72.20
66610;DHT22;53468;48.276;14.416;2024-02-15T13:56:29;13.20;72.70
66610;DHT22;53468;48.276;14.416;2024-02-15T14:01:31;13.10;72.90
66610;DHT22;53468;48.276;14.416;2024-02-15T14:06:34;13.10;73.30
66610;DHT22;53468;48.276;14.416;2024-02-15T14:11:39;13.00;72.70
66610;DHT22;53468;48.276;14.416;2024-02-15T14:16:41;13.00;74.40
66610;DHT22;53468;48.276;14.416;2024-02-15T14:21:43;12.90;74.00
66610;DHT22;53468;48.276;14.416;2024-02-15T14:26:48;12.90;73.80
66610;DHT22;53468;48.276;14.416;2024-02-15T14:31:53;12.90;74.00
66610;DHT22;53468;48.276;14.416;2024-02-15T14:37:13;12.80;73.60
66610;DHT22;53468;48.276;14.416;2024-02-15T14:42:19;12.90;73.50
66610;DHT22;53468;48.276;14.416;2024-02-15T14:47:22;12.90;74.30
66610;DHT22;53468;48.276;14.416;2024-02-15T14:52:25;12.90;74.00
66610;DHT22;53468;48.276;14.416;2024-02-15T14:57:29;12.90;74.70
66610;DHT22;53468;48.276;14.416;2024-02-15T15:02:31;12.90;74.40
66610;DHT22;53468;48.276;14.416;2024-02-15T15:07:33;12.90;74.50
66610;DHT22;53468;48.276;14.416;2024-02-15T15:12:54;12.90;74.60
66610;DHT22;53468;48.276;14.416;2024-02-15T15:17:56;12.80;74.50
66610;DHT22;53468;48.276;14.416;2024-02-15T15:22:59;12.80;74.90
66610;DHT22;53468;48.276;14.416;2024-02-15T15:28:04;12.70;74.80
66610;DHT22;53468;48.276;14.416;2024-02-15T15:33:06;12.50;75.80
66610;DHT22;53468;48.276;14.416;2024-02-15T15:38:09;12.40;76.30
66610;DHT22;53468;48.276;14.416;2024-02-15T15:43:13;12.30;76.80
66610;DHT22;53468;48.276;14.416;2024-02-15T15:48:16;12.10;77.10
66610;DHT22;53468;48.276;14.416;2024-02-15T15:53:19;11.90;77.70
66610;DHT22;53468;48.276;14.416;2024-02-15T15:58:23;11.70;78.60
66610;DHT22;53468;48.276;14.416;2024-02-15T16:03:25;11.60;78.90
66610;DHT22;53468;48.276;14.416;2024-02-15T16:08:28;11.40;79.60
66610;DHT22;53468;48.276;14.416;2024-02-15T16:13:32;11.20;80.20
66610;DHT22;53468;48.276;14.416;2024-02-15T16:18:35;11.00;80.20
66610;DHT22;53468;48.276;14.416;2024-02-15T16:23:38;10.80;81.30
66610;DHT22;53468;48.276;14.416;2024-02-15T16:28:42;10.60;82.10
66610;DHT22;53468;48.276;14.416;2024-02-15T16:33:44;10.50;83.10
66610;DHT22;53468;48.276;14.416;2024-02-15T16:38:46;10.30;84.20
66610;DHT22;53468;48.276;14.416;2024-02-15T16:43:50;10.10;84.20
66610;DHT22;53468;48.276;14.416;2024-02-15T16:48:57;10.00;84.90
66610;DHT22;53468;48.276;14.416;2024-02-15T16:53:59;9.80;85.20
66610;DHT22;53468;48.276;14.416;2024-02-15T16:59:03;9.60;85.10
66610;DHT22;53468;48.276;14.416;2024-02-15T17:04:05;9.40;86.80
66610;DHT22;53468;48.276;14.416;2024-02-15T17:09:08;9.40;87.70
66610;DHT22;53468;48.276;14.416;2024-02-15T17:14:12;9.30;87.50
66610;DHT22;53468;48.276;14.416;2024-02-15T17:19:15;9.10;87.60
66610;DHT22;53468;48.276;14.416;2024-02-15T17:24:17;9.00;88.50
66610;DHT22;53468;48.276;14.416;2024-02-15T17:29:21;8.90;88.70
66610;DHT22;53468;48.276;14.416;2024-02-15T17:34:23;8.70;87.80
66610;DHT22;53468;48.276;14.416;2024-02-15T17:39:26;8.60;89.40
66610;DHT22;53468;48.276;14.416;2024-02-15T17:44:29;8.50;89.60
66610;DHT22;53468;48.276;14.416;2024-02-15T17:49:32;8.50;90.30
66610;DHT22;53468;48.276;14.416;2024-02-15T17:54:34;8.50;90.10
66610;DHT22;53468;48.276;14.416;2024-02-15T17:59:37;8.40;90.30
66610;DHT22;53468;48.276;14.416;2024-02-15T18:04:40;8.30;90.60
66610;DHT22;53468;48.276;14.416;2024-02-15T18:09:42;8.30;90.90
66610;DHT22;53468;48.276;14.416;2024-02-15T18:14:48;8.20;90.50
66610;DHT22;53468;48.276;14.416;2024-02-15T18:19:51;8.00;90.00
66610;DHT22;53468;48.276;14.416;2024-02-15T18:24:53;7.90;90.30
66610;DHT22;53468;48.276;14.416;2024-02-15T18:29:56;7.70;90.60
66610;DHT22;53468;48.276;14.416;2024-02-15T18:34:59;7.70;90.80
66610;DHT22;53468;48.276;14.416;2024-02-15T18:40:01;7.60;90.80
66610;DHT22;53468;48.276;14.416;2024-02-15T18:45:09;7.60;91.20
66610;DHT22;53468;48.276;14.416;2024-02-15T18:50:11;7.60;91.70
66610;DHT22;53468;48.276;14.416;2024-02-15T18:55:13;7.60;91.70
66610;DHT22;53468;48.276;14.416;2024-02-15T19:00:17;7.50;91.40
66610;DHT22;53468;48.276;14.416;2024-02-15T19:05:20;7.40;91.20
66610;DHT22;53468;48.276;14.416;2024-02-15T19:10:23;7.40;91.60
66610;DHT22;53468;48.276;14.416;2024-02-15T19:15:26;7.30;91.50
66610;DHT22;53468;48.276;14.416;2024-02-15T19:20:29;7.10;91.50
66610;DHT22;53468;48.276;14.416;2024-02-15T19:25:31;7.00;91.90
66610;DHT22;53468;48.276;14.416;2024-02-15T19:30:35;7.00;92.20
66610;DHT22;53468;48.276;14.416;2024-02-15T19:35:37;7.00;92.30
66610;DHT22;53468;48.276;14.416;2024-02-15T19:40:41;6.80;92.00
66610;DHT22;53468;48.276;14.416;2024-02-15T19:45:45;6.90;92.40
66610;DHT22;53468;48.276;14.416;2024-02-15T19:50:48;6.80;91.70
66610;DHT22;53468;48.276;14.416;2024-02-15T19:55:50;6.70;92.80
66610;DHT22;53468;48.276;14.416;2024-02-15T20:00:54;6.70;92.90
66610;DHT22;53468;48.276;14.416;2024-02-15T20:05:56;6.60;92.50
66610;DHT22;53468;48.276;14.416;2024-02-15T20:10:59;6.60;92.90
66610;DHT22;53468;48.276;14.416;2024-02-15T20:16:04;6.60;92.70
66610;DHT22;53468;48.276;14.416;2024-02-15T20:21:06;6.50;92.80
66610;DHT22;53468;48.276;14.416;2024-02-15T20:26:10;6.40;93.00
66610;DHT22;53468;48.276;14.416;2024-02-15T20:31:14;6.40;93.70
66610;DHT22;53468;48.276;14.416;2024-02-15T20:36:17;6.40;93.40
66610;DHT22;53468;48.276;14.416;2024-02-15T20:41:21;6.40;93.40
66610;DHT22;53468;48.276;14.416;2024-02-15T20:46:29;6.30;93.20
66610;DHT22;53468;48.276;14.416;2024-02-15T20:51:33;6.20;92.50
66610;DHT22;53468;48.276;14.416;2024-02-15T20:56:36;6.10;92.90
66610;DHT22;53468;48.276;14.416;2024-02-15T21:01:39;6.00;93.30
66610;DHT22;53468;48.276;14.416;2024-02-15T21:06:41;5.90;93.30
66610;DHT22;53468;48.276;14.416;2024-02-15T21:11:44;5.90;93.00
66610;DHT22;53468;48.276;14.416;2024-02-15T21:16:48;5.80;93.00
66610;DHT22;53468;48.276;14.416;2024-02-15T21:21:50;5.70;92.90
66610;DHT22;53468;48.276;14.416;2024-02-15T21:26:52;5.70;93.40
66610;DHT22;53468;48.276;14.416;2024-02-15T21:31:56;5.60;93.20
66610;DHT22;53468;48.276;14.416;2024-02-15T21:36:58;5.60;93.10
66610;DHT22;53468;48.276;14.416;2024-02-15T21:42:01;5.60;93.20
66610;DHT22;53468;48.276;14.416;2024-02-15T21:47:06;5.50;93.60
66610;DHT22;53468;48.276;14.416;2024-02-15T21:52:10;5.50;93.40
66610;DHT22;53468;48.276;14.416;2024-02-15T21:57:12;5.40;93.40
66610;DHT22;53468;48.276;14.416;2024-02-15T22:02:16;5.30;93.40
66610;DHT22;53468;48.276;14.416;2024-02-15T22:07:19;5.30;93.60
66610;DHT22;53468;48.276;14.416;2024-02-15T22:12:24;5.20;93.40
66610;DHT22;53468;48.276;14.416;2024-02-15T22:17:27;5.20;93.60
66610;DHT22;53468;48.276;14.416;2024-02-15T22:22:30;5.20;93.80
66610;DHT22;53468;48.276;14.416;2024-02-15T22:27:32;5.10;94.00
66610;DHT22;53468;48.276;14.416;2024-02-15T22:32:36;5.20;93.80
66610;DHT22;53468;48.276;14.416;2024-02-15T22:37:38;5.20;93.90
66610;DHT22;53468;48.276;14.416;2024-02-15T22:42:43;5.10;93.80
66610;DHT22;53468;48.276;14.416;2024-02-15T22:47:46;5.10;94.40
66610;DHT22;53468;48.276;14.416;2024-02-15T22:52:49;5.10;94.20
66610;DHT22;53468;48.276;14.416;2024-02-15T22:57:55;5.00;94.30
66610;DHT22;53468;48.276;14.416;2024-02-15T23:02:59;5.00;94.20
66610;DHT22;53468;48.276;14.416;2024-02-15T23:08:02;4.90;94.10
66610;DHT22;53468;48.276;14.416;2024-02-15T23:13:04;4.90;93.90
66610;DHT22;53468;48.276;14.416;2024-02-15T23:18:11;4.80;93.90
66610;DHT22;53468;48.276;14.416;2024-02-15T23:23:14;4.80;93.70
66610;DHT22;53468;48.276;14.416;2024-02-15T23:28:16;4.70;93.90
66610;DHT22;53468;48.276;14.416;2024-02-15T23:33:20;4.70;93.90
66610;DHT22;53468;48.276;14.416;2024-02-15T23:38:22;4.70;94.30
66610;DHT22;53468;48.276;14.416;2024-02-15T23:43:41;4.70;93.90
66610;DHT22;53468;48.276;14.416;2024-02-15T23:48:45;4.50;94.20
66610;DHT22;53468;48.276;14.416;2024-02-15T23:53:47;4.50;93.90
66610;DHT22;53468;48.276;14.416;2024-02-15T23:58:50;4.40;93.80
